createdAt,value
2022-10-05T00:01:15.434Z,16.39
2022-10-05T00:03:42.993Z,16.40
2022-10-05T00:06:10.658Z,16.39
2022-10-05T00:08:38.216Z,16.39
2022-10-05T00:11:07.344Z,16.40
2022-10-05T00:13:34.884Z,16.40
2022-10-05T00:16:09.219Z,16.39
2022-10-05T00:18:38.315Z,16.39
2022-10-05T00:21:13.617Z,16.39
2022-10-05T00:23:41.126Z,16.38
2022-10-05T00:26:12.904Z,16.38
2022-10-05T00:28:40.920Z,16.37
2022-10-05T00:31:11.670Z,16.36
2022-10-05T00:33:40.649Z,16.35
2022-10-05T00:36:08.397Z,16.36
2022-10-05T00:38:35.983Z,16.36
2022-10-05T00:41:06.372Z,16.36
2022-10-05T00:44:00.280Z,16.36
2022-10-05T00:46:30.276Z,16.36
2022-10-05T00:49:01.616Z,16.36
2022-10-05T00:51:29.778Z,16.36
2022-10-05T00:54:18.043Z,16.36
2022-10-05T00:57:01.128Z,16.36
2022-10-05T00:59:36.828Z,16.35
2022-10-05T01:02:07.861Z,16.35
2022-10-05T01:04:44.470Z,16.35
2022-10-05T01:07:15.992Z,16.34
2022-10-05T01:09:47.342Z,16.35
2022-10-05T01:12:17.508Z,16.34
2022-10-05T01:14:49.804Z,16.34
2022-10-05T01:17:20.062Z,16.34
2022-10-05T01:20:08.145Z,16.34
2022-10-05T01:22:42.420Z,16.33
2022-10-05T01:25:18.285Z,16.33
2022-10-05T01:27:53.377Z,16.33
2022-10-05T01:30:21.405Z,16.33
2022-10-05T01:32:51.789Z,16.32
2022-10-05T01:35:27.984Z,16.32
2022-10-05T01:38:00.850Z,16.34
2022-10-05T01:40:32.332Z,16.33
2022-10-05T01:43:05.700Z,16.33
2022-10-05T01:45:36.244Z,16.32
2022-10-05T01:48:08.313Z,16.32
2022-10-05T01:50:41.352Z,16.32
2022-10-05T01:53:12.381Z,16.32
2022-10-05T01:55:42.304Z,16.32
2022-10-05T01:58:17.176Z,16.31
2022-10-05T02:00:48.146Z,16.32
2022-10-05T02:03:18.451Z,16.32
2022-10-05T02:05:49.165Z,16.30
2022-10-05T02:08:17.713Z,16.31
2022-10-05T02:10:47.308Z,16.31
2022-10-05T02:13:17.629Z,16.30
2022-10-05T02:15:46.046Z,16.30
2022-10-05T02:18:15.278Z,16.30
2022-10-05T02:20:42.836Z,16.31
2022-10-05T02:23:12.418Z,16.30
2022-10-05T02:25:40.848Z,16.31
2022-10-05T02:28:10.255Z,16.30
2022-10-05T02:30:42.432Z,16.30
2022-10-05T02:33:11.681Z,16.30
2022-10-05T02:35:39.323Z,16.30
2022-10-05T02:38:09.494Z,16.30
2022-10-05T02:40:42.305Z,16.30
2022-10-05T02:43:16.177Z,16.29
2022-10-05T02:45:47.667Z,16.29
2022-10-05T02:48:19.389Z,16.29
2022-10-05T02:50:52.552Z,16.30
2022-10-05T02:53:24.737Z,16.30
2022-10-05T02:55:57.672Z,16.30
2022-10-05T02:58:26.325Z,16.29
2022-10-05T03:00:58.169Z,16.30
2022-10-05T03:03:29.318Z,16.29
2022-10-05T03:06:02.107Z,16.29
2022-10-05T03:08:33.840Z,16.29
2022-10-05T03:11:05.745Z,16.28
2022-10-05T03:13:35.566Z,16.28
2022-10-05T03:16:13.877Z,16.28
2022-10-05T03:18:48.242Z,16.29
2022-10-05T03:21:29.837Z,16.28
2022-10-05T03:24:06.642Z,16.28
2022-10-05T03:26:38.122Z,16.29
2022-10-05T03:29:09.715Z,16.28
2022-10-05T03:31:40.450Z,16.29
2022-10-05T03:34:10.196Z,16.28
2022-10-05T03:36:40.085Z,16.28
2022-10-05T03:39:10.501Z,16.28
2022-10-05T03:41:41.766Z,16.27
2022-10-05T03:44:16.523Z,16.28
2022-10-05T03:46:57.431Z,16.28
2022-10-05T03:49:29.365Z,16.27
2022-10-05T03:52:00.123Z,16.27
2022-10-05T03:54:29.995Z,16.27
2022-10-05T03:56:58.521Z,16.27
2022-10-05T03:59:32.360Z,16.27
2022-10-05T04:02:02.352Z,16.26
2022-10-05T04:04:32.477Z,16.26
2022-10-05T04:07:00.032Z,16.26
2022-10-05T04:09:29.085Z,16.28
2022-10-05T04:12:04.217Z,16.27
2022-10-05T04:14:33.831Z,16.27
2022-10-05T04:17:04.152Z,16.26
2022-10-05T04:19:33.572Z,16.26
2022-10-05T04:22:05.761Z,16.28
2022-10-05T04:24:35.425Z,16.29
2022-10-05T04:27:05.617Z,16.30
2022-10-05T04:29:34.730Z,16.31
2022-10-05T04:32:10.168Z,16.32
2022-10-05T04:34:47.227Z,16.32
2022-10-05T04:37:18.471Z,16.33
2022-10-05T04:39:47.551Z,16.33
2022-10-05T04:42:18.142Z,16.32
2022-10-05T04:44:58.423Z,16.32
2022-10-05T04:47:36.788Z,16.31
2022-10-05T04:50:19.092Z,16.32
2022-10-05T04:52:51.888Z,16.32
2022-10-05T04:55:23.292Z,16.33
2022-10-05T04:57:51.598Z,16.31
2022-10-05T05:00:23.744Z,16.31
2022-10-05T05:03:02.636Z,16.32
2022-10-05T05:05:35.675Z,16.31
2022-10-05T05:08:10.280Z,16.31
2022-10-05T05:10:46.581Z,16.32
2022-10-05T05:13:25.919Z,16.30
2022-10-05T05:15:54.222Z,16.30
2022-10-05T05:18:35.701Z,16.30
2022-10-05T05:21:05.908Z,16.29
2022-10-05T05:23:38.615Z,16.30
2022-10-05T05:26:08.792Z,16.29
2022-10-05T05:28:40.129Z,16.30
2022-10-05T05:31:11.781Z,16.30
2022-10-05T05:33:45.294Z,16.30
2022-10-05T05:36:23.610Z,16.29
2022-10-05T05:38:55.741Z,16.28
2022-10-05T05:41:28.015Z,16.29
2022-10-05T05:44:06.046Z,16.28
2022-10-05T05:47:01.791Z,16.28
2022-10-05T05:49:31.261Z,16.28
2022-10-05T05:52:00.665Z,16.27
2022-10-05T05:54:30.677Z,16.28
2022-10-05T05:57:01.246Z,16.28
2022-10-05T05:59:30.577Z,16.29
2022-10-05T06:02:00.558Z,16.28
2022-10-05T06:04:31.937Z,16.28
2022-10-05T06:06:59.578Z,16.28
2022-10-05T06:09:27.868Z,16.27
2022-10-05T06:11:56.641Z,16.28
2022-10-05T06:14:26.136Z,16.27
2022-10-05T06:16:55.344Z,16.27
2022-10-05T06:19:23.733Z,16.27
2022-10-05T06:21:55.533Z,16.26
2022-10-05T06:24:24.597Z,16.26
2022-10-05T06:27:09.833Z,16.28
2022-10-05T06:29:43.293Z,16.27
2022-10-05T06:32:14.849Z,16.27
2022-10-05T06:34:53.164Z,16.27
2022-10-05T06:37:26.681Z,16.26
2022-10-05T06:40:02.871Z,16.26
2022-10-05T06:42:41.240Z,16.27
2022-10-05T06:45:12.969Z,16.27
2022-10-05T06:47:45.236Z,16.27
2022-10-05T06:50:16.233Z,16.28
2022-10-05T06:52:53.261Z,16.27
2022-10-05T06:55:24.012Z,16.27
2022-10-05T06:57:58.295Z,16.26
2022-10-05T07:00:26.653Z,16.26
2022-10-05T07:02:57.215Z,16.27
2022-10-05T07:05:53.867Z,16.27
2022-10-05T07:08:26.808Z,16.27
2022-10-05T07:11:03.916Z,16.27
2022-10-05T07:13:44.026Z,16.26
2022-10-05T07:16:13.650Z,16.27
2022-10-05T07:18:50.030Z,16.27
2022-10-05T07:21:21.400Z,16.27
2022-10-05T07:24:00.460Z,16.28
2022-10-05T07:26:32.470Z,16.27
2022-10-05T07:29:20.455Z,16.28
2022-10-05T07:31:50.850Z,16.28
2022-10-05T07:34:22.833Z,16.28
2022-10-05T07:37:18.084Z,16.29
2022-10-05T07:40:00.232Z,16.29
2022-10-05T07:42:42.441Z,16.29
2022-10-05T07:45:18.267Z,16.29
2022-10-05T07:47:48.453Z,16.30
2022-10-05T07:50:19.823Z,16.30
2022-10-05T07:52:49.405Z,16.29
2022-10-05T07:55:19.864Z,16.30
2022-10-05T07:57:50.884Z,16.29
2022-10-05T08:00:20.101Z,16.30
2022-10-05T08:02:49.611Z,16.30
2022-10-05T08:05:20.825Z,16.31
2022-10-05T08:07:48.953Z,16.31
2022-10-05T08:10:23.788Z,16.32
2022-10-05T08:13:03.753Z,16.32
2022-10-05T08:15:32.953Z,16.32
2022-10-05T08:18:01.549Z,16.32
2022-10-05T08:20:33.934Z,16.33
2022-10-05T08:23:03.425Z,16.33
2022-10-05T08:25:38.669Z,16.32
2022-10-05T08:28:09.427Z,16.33
2022-10-05T08:30:53.886Z,16.33
2022-10-05T08:33:21.493Z,16.33
2022-10-05T08:35:51.359Z,16.33
2022-10-05T08:38:20.194Z,16.34
2022-10-05T08:41:18.622Z,16.33
2022-10-05T08:44:03.283Z,16.35
2022-10-05T08:46:38.323Z,16.35
2022-10-05T08:49:14.009Z,16.36
2022-10-05T08:52:10.192Z,16.39
2022-10-05T08:54:44.583Z,16.39
2022-10-05T08:57:46.504Z,16.40
2022-10-05T09:00:15.117Z,16.42
2022-10-05T09:03:04.546Z,16.43
2022-10-05T09:06:21.491Z,16.44
2022-10-05T09:09:20.085Z,16.47
2022-10-05T09:11:55.907Z,16.49
2022-10-05T09:14:34.586Z,16.51
2022-10-05T09:17:14.181Z,16.51
2022-10-05T09:20:09.735Z,16.54
2022-10-05T09:22:40.271Z,16.54
2022-10-05T09:25:17.090Z,16.55
2022-10-05T09:27:45.633Z,16.57
2022-10-05T09:30:21.510Z,16.58
2022-10-05T09:33:09.593Z,16.58
2022-10-05T09:36:25.784Z,16.59
2022-10-05T09:39:27.081Z,16.60
2022-10-05T09:42:04.160Z,16.61
2022-10-05T09:44:51.258Z,16.63
2022-10-05T09:47:52.340Z,16.64
2022-10-05T09:50:50.813Z,16.66
2022-10-05T09:53:53.413Z,16.69
2022-10-05T09:59:27.244Z,16.74
2022-10-05T10:02:05.471Z,16.81
2022-10-05T10:04:52.802Z,16.84
2022-10-05T10:07:33.158Z,16.85
2022-10-05T10:10:34.205Z,16.92
2022-10-05T10:13:18.216Z,16.92
2022-10-05T10:15:57.619Z,16.97
2022-10-05T10:18:45.911Z,16.99
2022-10-05T10:21:37.948Z,17.01
2022-10-05T10:24:14.025Z,17.02
2022-10-05T10:26:54.439Z,17.02
2022-10-05T10:29:50.369Z,17.02
2022-10-05T10:32:37.350Z,17.05
2022-10-05T10:35:12.892Z,17.03
2022-10-05T10:38:28.563Z,17.04
2022-10-05T10:41:22.418Z,17.04
2022-10-05T10:44:07.025Z,17.05
2022-10-05T10:46:39.215Z,17.05
2022-10-05T10:49:17.006Z,17.05
2022-10-05T10:51:56.627Z,17.05
2022-10-05T10:54:35.104Z,17.05
2022-10-05T10:57:08.623Z,17.07
2022-10-05T11:00:15.451Z,17.08
2022-10-05T11:03:11.419Z,17.08
2022-10-05T11:05:54.267Z,17.09
2022-10-05T11:09:09.611Z,17.09
2022-10-05T11:12:15.492Z,17.10
2022-10-05T11:15:11.257Z,17.10
2022-10-05T11:17:59.129Z,17.11
2022-10-05T11:20:37.833Z,17.12
2022-10-05T11:23:17.725Z,17.13
2022-10-05T11:25:51.817Z,17.14
2022-10-05T11:28:36.104Z,17.14
2022-10-05T11:31:24.744Z,17.15
2022-10-05T11:34:12.496Z,17.16
2022-10-05T11:37:10.887Z,17.16
2022-10-05T11:39:44.091Z,17.17
2022-10-05T11:42:28.901Z,17.17
2022-10-05T11:45:22.668Z,17.18
2022-10-05T11:48:10.870Z,17.18
2022-10-05T11:50:40.689Z,17.18
2022-10-05T11:53:12.097Z,17.17
2022-10-05T11:55:41.103Z,17.19
2022-10-05T11:58:13.877Z,17.19
2022-10-05T12:00:43.080Z,17.19
2022-10-05T12:03:24.006Z,17.19
2022-10-05T12:06:02.233Z,17.18
2022-10-05T12:08:35.062Z,17.19
2022-10-05T12:11:12.005Z,17.19
2022-10-05T12:13:43.184Z,17.19
2022-10-05T12:16:13.822Z,17.20
2022-10-05T12:18:47.822Z,17.19
2022-10-05T12:21:19.707Z,17.19
2022-10-05T12:23:48.606Z,17.20
2022-10-05T12:26:17.349Z,17.19
2022-10-05T12:28:47.306Z,17.20
2022-10-05T12:31:21.553Z,17.19
2022-10-05T12:33:54.389Z,17.20
2022-10-05T12:36:26.354Z,17.19
2022-10-05T12:38:59.014Z,17.20
2022-10-05T12:41:28.525Z,17.20
2022-10-05T12:44:03.406Z,17.20
2022-10-05T12:46:35.079Z,17.20
2022-10-05T12:49:24.951Z,17.20
2022-10-05T12:51:56.173Z,17.21
2022-10-05T12:54:25.701Z,17.20
2022-10-05T12:56:55.697Z,17.20
2022-10-05T12:59:35.944Z,17.20
2022-10-05T13:02:06.135Z,17.20
2022-10-05T13:04:40.821Z,17.19
2022-10-05T13:07:34.434Z,17.20
2022-10-05T13:10:05.732Z,17.20
2022-10-05T13:12:42.312Z,17.21
2022-10-05T13:15:15.421Z,17.20
2022-10-05T13:17:45.423Z,17.20
2022-10-05T13:20:17.353Z,17.20
2022-10-05T13:22:44.945Z,17.21
2022-10-05T13:25:21.834Z,17.20
2022-10-05T13:27:58.430Z,17.19
2022-10-05T13:30:26.072Z,17.19
2022-10-05T13:32:57.055Z,17.19
2022-10-05T13:35:37.048Z,17.18
2022-10-05T13:38:08.923Z,17.19
2022-10-05T13:40:39.115Z,17.19
2022-10-05T13:43:08.444Z,17.18
2022-10-05T13:45:40.276Z,17.19
2022-10-05T13:48:14.928Z,17.19
2022-10-05T13:50:45.986Z,17.18
2022-10-05T13:53:17.950Z,17.19
2022-10-05T13:55:46.944Z,17.18
2022-10-05T13:58:20.164Z,17.18
2022-10-05T14:00:49.444Z,17.18
2022-10-05T14:03:27.883Z,17.18
2022-10-05T14:05:59.111Z,17.18
2022-10-05T14:08:28.250Z,17.17
2022-10-05T14:10:56.824Z,17.16
2022-10-05T14:13:28.699Z,17.16
2022-10-05T14:15:59.297Z,17.17
2022-10-05T14:18:27.698Z,17.17
2022-10-05T14:21:17.135Z,17.18
2022-10-05T14:23:44.950Z,17.17
2022-10-05T14:26:18.745Z,17.19
2022-10-05T14:28:57.923Z,17.17
2022-10-05T14:31:29.059Z,17.18
2022-10-05T14:33:56.633Z,17.17
2022-10-05T14:36:36.080Z,17.16
2022-10-05T14:39:05.137Z,17.17
2022-10-05T14:41:35.628Z,17.17
2022-10-05T14:44:05.199Z,17.17
2022-10-05T14:46:33.562Z,17.17
2022-10-05T14:49:13.960Z,17.16
2022-10-05T14:51:43.189Z,17.17
2022-10-05T14:54:23.417Z,17.17
2022-10-05T14:56:51.301Z,17.17
2022-10-05T14:59:27.810Z,17.17
2022-10-05T15:01:57.490Z,17.16
2022-10-05T15:04:31.882Z,17.16
2022-10-05T15:07:06.961Z,17.16
2022-10-05T15:09:47.319Z,17.15
2022-10-05T15:12:15.220Z,17.15
2022-10-05T15:14:44.429Z,17.15
2022-10-05T15:17:15.536Z,17.14
2022-10-05T15:19:46.668Z,17.13
2022-10-05T15:22:26.968Z,17.14
2022-10-05T15:25:01.572Z,17.15
2022-10-05T15:27:32.759Z,17.14
2022-10-05T15:30:04.616Z,17.13
2022-10-05T15:32:41.553Z,17.13
2022-10-05T15:35:48.042Z,17.12
2022-10-05T15:38:23.772Z,17.12
2022-10-05T15:40:59.501Z,17.12
2022-10-05T15:43:27.372Z,17.12
2022-10-05T15:45:58.378Z,17.12
2022-10-05T15:48:29.078Z,17.12
2022-10-05T15:51:01.339Z,17.12
2022-10-05T15:53:34.121Z,17.12
2022-10-05T15:56:03.650Z,17.12
2022-10-05T15:58:53.816Z,17.10
2022-10-05T16:01:22.462Z,17.11
2022-10-05T16:03:51.459Z,17.10
2022-10-05T16:06:43.268Z,17.10
2022-10-05T16:09:18.850Z,17.10
2022-10-05T16:11:59.632Z,17.09
2022-10-05T16:14:34.442Z,17.09
2022-10-05T16:17:13.571Z,17.09
2022-10-05T16:19:44.158Z,17.09
2022-10-05T16:22:16.737Z,17.10
2022-10-05T16:24:52.078Z,17.08
2022-10-05T16:27:22.030Z,17.08
2022-10-05T16:29:53.160Z,17.07
2022-10-05T16:32:22.604Z,17.06
2022-10-05T16:34:57.535Z,17.05
2022-10-05T16:37:29.367Z,17.06
2022-10-05T16:40:00.006Z,17.04
2022-10-05T16:42:35.716Z,17.05
2022-10-05T16:45:10.888Z,17.06
2022-10-05T16:47:43.946Z,17.05
2022-10-05T16:50:18.808Z,17.05
2022-10-05T16:52:47.755Z,17.05
2022-10-05T16:55:20.969Z,17.05
2022-10-05T16:57:51.521Z,17.06
2022-10-05T17:00:21.347Z,17.05
2022-10-05T17:03:05.124Z,17.03
2022-10-05T17:05:44.088Z,17.04
2022-10-05T17:08:21.475Z,17.03
2022-10-05T17:10:59.045Z,17.03
2022-10-05T17:13:43.391Z,17.02
2022-10-05T17:16:13.216Z,17.02
2022-10-05T17:18:55.076Z,17.04
2022-10-05T17:21:23.844Z,17.05
2022-10-05T17:23:55.022Z,17.07
2022-10-05T17:26:42.410Z,17.12
2022-10-05T17:29:10.720Z,17.20
2022-10-05T17:32:02.931Z,17.29
2022-10-05T17:34:31.068Z,17.38
2022-10-05T17:36:59.737Z,17.48
2022-10-05T17:39:46.428Z,17.56
2022-10-05T17:42:49.160Z,17.66
2022-10-05T17:45:52.465Z,17.74
2022-10-05T17:49:01.246Z,17.83
2022-10-05T17:52:15.567Z,17.90
2022-10-05T17:55:14.344Z,17.96
2022-10-05T17:57:41.915Z,18.01
2022-10-05T18:00:34.713Z,18.04
2022-10-05T18:03:02.299Z,18.08
2022-10-05T18:05:30.090Z,18.11
2022-10-05T18:08:21.203Z,18.16
2022-10-05T18:11:07.521Z,18.19
2022-10-05T18:13:35.708Z,18.20
2022-10-05T18:16:09.667Z,18.22
2022-10-05T18:18:55.792Z,18.21
2022-10-05T18:21:35.529Z,18.26
2022-10-05T18:24:29.556Z,18.32
2022-10-05T18:27:03.300Z,18.34
2022-10-05T18:30:08.900Z,18.36
2022-10-05T18:32:45.355Z,18.38
2022-10-05T18:35:14.555Z,18.38
2022-10-05T18:37:47.301Z,18.39
2022-10-05T18:40:23.890Z,18.43
2022-10-05T18:42:53.700Z,18.43
2022-10-05T18:45:23.611Z,18.42
2022-10-05T18:47:58.678Z,18.45
2022-10-05T18:50:28.049Z,18.47
2022-10-05T18:53:08.425Z,18.47
2022-10-05T18:55:37.340Z,18.48
2022-10-05T18:58:10.963Z,18.52
2022-10-05T19:00:46.501Z,18.55
2022-10-05T19:03:17.504Z,18.55
2022-10-05T19:05:49.009Z,18.54
2022-10-05T19:08:25.532Z,18.52
2022-10-05T19:10:56.032Z,18.46
2022-10-05T19:13:30.962Z,18.41
2022-10-05T19:16:04.800Z,18.35
2022-10-05T19:18:46.519Z,18.31
2022-10-05T19:21:21.650Z,18.25
2022-10-05T19:24:13.946Z,18.20
2022-10-05T19:26:51.701Z,18.16
2022-10-05T19:29:27.020Z,18.12
2022-10-05T19:31:56.463Z,18.09
2022-10-05T19:34:33.712Z,18.04
2022-10-05T19:37:04.077Z,18.00
2022-10-05T19:39:35.955Z,17.97
2022-10-05T19:42:12.575Z,17.95
2022-10-05T19:44:47.981Z,17.92
2022-10-05T19:47:18.583Z,17.89
2022-10-05T19:49:57.499Z,17.87
2022-10-05T19:52:28.293Z,17.85
2022-10-05T19:55:04.602Z,17.84
2022-10-05T19:57:32.574Z,17.82
2022-10-05T20:00:00.405Z,17.81
2022-10-05T20:02:28.230Z,17.77
2022-10-05T20:04:57.413Z,17.75
2022-10-05T20:07:24.973Z,17.73
2022-10-05T20:09:54.633Z,17.72
2022-10-05T20:12:22.886Z,17.70
2022-10-05T20:15:23.885Z,17.69
2022-10-05T20:18:23.574Z,17.67
2022-10-05T20:20:52.482Z,17.66
2022-10-05T20:23:23.954Z,17.65
2022-10-05T20:26:05.508Z,17.64
2022-10-05T20:28:33.379Z,17.63
2022-10-05T20:31:01.331Z,17.63
2022-10-05T20:33:28.976Z,17.60
2022-10-05T20:35:57.966Z,17.60
2022-10-05T20:38:25.958Z,17.59
2022-10-05T20:40:53.779Z,17.58
2022-10-05T20:43:21.292Z,17.58
2022-10-05T20:45:48.829Z,17.58
2022-10-05T20:48:17.400Z,17.56
2022-10-05T20:50:44.932Z,17.56
2022-10-05T20:53:14.097Z,17.55
2022-10-05T20:55:42.986Z,17.54
2022-10-05T20:58:11.060Z,17.55
2022-10-05T21:00:56.601Z,17.54
2022-10-05T21:03:24.293Z,17.53
2022-10-05T21:05:51.844Z,17.53
2022-10-05T21:08:20.708Z,17.52
2022-10-05T21:10:49.296Z,17.51
2022-10-05T21:13:17.552Z,17.50
2022-10-05T21:15:45.087Z,17.48
2022-10-05T21:18:12.636Z,17.49
2022-10-05T21:20:40.145Z,17.48
2022-10-05T21:23:07.672Z,17.48
2022-10-05T21:25:36.537Z,17.47
2022-10-05T21:28:04.918Z,17.47
2022-10-05T21:30:32.457Z,17.46
2022-10-05T21:32:59.996Z,17.47
2022-10-05T21:35:27.573Z,17.46
2022-10-05T21:37:55.120Z,17.46
2022-10-05T21:40:23.837Z,17.46
2022-10-05T21:42:52.709Z,17.45
2022-10-05T21:45:20.249Z,17.44
2022-10-05T21:47:47.807Z,17.43
2022-10-05T21:50:15.521Z,17.44
2022-10-05T21:52:43.052Z,17.42
2022-10-05T21:55:10.781Z,17.43
2022-10-05T21:57:38.315Z,17.43
2022-10-05T22:00:08.841Z,17.41
2022-10-05T22:02:36.427Z,17.42
2022-10-05T22:05:04.180Z,17.41
2022-10-05T22:07:31.941Z,17.41
2022-10-05T22:09:59.493Z,17.41
2022-10-05T22:12:28.073Z,17.41
2022-10-05T22:14:55.568Z,17.40
2022-10-05T22:17:27.099Z,17.39
2022-10-05T22:19:54.889Z,17.40
2022-10-05T22:22:22.405Z,17.39
2022-10-05T22:24:49.948Z,17.40
2022-10-05T22:27:17.513Z,17.38
2022-10-05T22:29:45.068Z,17.37
2022-10-05T22:32:12.881Z,17.38
2022-10-05T22:34:41.771Z,17.37
2022-10-05T22:37:12.873Z,17.38
2022-10-05T22:39:40.539Z,17.37
2022-10-05T22:42:08.360Z,17.37
2022-10-05T22:44:36.222Z,17.37
2022-10-05T22:47:04.005Z,17.36
2022-10-05T22:49:31.542Z,17.36
2022-10-05T22:52:00.423Z,17.37
2022-10-05T22:54:30.085Z,17.35
2022-10-05T22:56:59.294Z,17.35
2022-10-05T22:59:26.819Z,17.35
2022-10-05T23:01:54.556Z,17.34
2022-10-05T23:04:22.250Z,17.34
2022-10-05T23:06:49.763Z,17.34
2022-10-05T23:09:18.757Z,17.33
2022-10-05T23:11:51.789Z,17.33
2022-10-05T23:14:19.512Z,17.34
2022-10-05T23:16:47.450Z,17.33
2022-10-05T23:19:15.032Z,17.33
2022-10-05T23:21:42.613Z,17.34
2022-10-05T23:24:10.163Z,17.33
2022-10-05T23:26:39.182Z,17.33
2022-10-05T23:29:06.768Z,17.33
2022-10-05T23:31:36.438Z,17.32
2022-10-05T23:34:04.023Z,17.33
2022-10-05T23:36:32.373Z,17.33
2022-10-05T23:38:59.917Z,17.33
2022-10-05T23:41:27.470Z,17.32
2022-10-05T23:43:56.361Z,17.32
2022-10-05T23:46:24.038Z,17.32
2022-10-05T23:48:53.204Z,17.31
2022-10-05T23:51:20.765Z,17.30
2022-10-05T23:53:48.359Z,17.30
2022-10-05T23:56:15.932Z,17.31
2022-10-05T23:58:43.532Z,17.32
